createdAt,value
2022-10-25T00:01:57.551Z,94.60
2022-10-25T00:04:27.144Z,94.10
2022-10-25T00:06:55.578Z,94.70
2022-10-25T00:09:23.628Z,94.30
2022-10-25T00:11:51.921Z,94.00
2022-10-25T00:14:20.597Z,93.30
2022-10-25T00:16:48.774Z,92.80
2022-10-25T00:19:16.808Z,92.40
2022-10-25T00:21:46.315Z,92.20
2022-10-25T00:24:14.874Z,92.60
2022-10-25T00:26:43.173Z,91.90
2022-10-25T00:29:12.140Z,91.90
2022-10-25T00:31:40.473Z,92.00
2022-10-25T00:34:08.496Z,92.00
2022-10-25T00:36:36.541Z,91.50
2022-10-25T00:39:05.913Z,92.10
2022-10-25T00:41:35.159Z,91.80
2022-10-25T00:44:46.569Z,91.50
2022-10-25T00:47:22.342Z,91.40
2022-10-25T00:49:57.100Z,91.20
2022-10-25T00:52:25.855Z,91.10
2022-10-25T00:54:55.834Z,91.20
2022-10-25T00:57:31.369Z,91.60
2022-10-25T01:00:00.447Z,92.20
2022-10-25T01:02:28.865Z,92.70
2022-10-25T01:04:57.807Z,92.70
2022-10-25T01:07:26.265Z,92.90
2022-10-25T01:09:56.251Z,92.50
2022-10-25T01:12:24.899Z,92.70
2022-10-25T01:14:54.090Z,92.60
2022-10-25T01:17:32.525Z,92.90
2022-10-25T01:20:38.747Z,92.80
2022-10-25T01:23:26.153Z,92.70
2022-10-25T01:26:03.891Z,92.80
2022-10-25T01:28:48.869Z,92.80
2022-10-25T01:31:25.382Z,92.90
2022-10-25T01:33:58.755Z,92.90
2022-10-25T01:36:39.016Z,92.70
2022-10-25T01:39:13.207Z,93.50
2022-10-25T01:41:47.953Z,92.70
2022-10-25T01:44:25.987Z,92.80
2022-10-25T01:47:02.399Z,92.70
2022-10-25T01:49:38.470Z,92.40
2022-10-25T01:52:06.595Z,92.10
2022-10-25T01:54:34.874Z,92.10
2022-10-25T01:57:18.548Z,91.60
2022-10-25T02:00:07.448Z,91.80
2022-10-25T02:02:56.203Z,91.80
2022-10-25T02:05:32.077Z,91.70
2022-10-25T02:08:07.003Z,92.10
2022-10-25T02:10:39.652Z,92.20
2022-10-25T02:13:17.918Z,91.40
2022-10-25T02:15:53.633Z,91.20
2022-10-25T02:18:27.224Z,91.00
2022-10-25T02:20:56.905Z,91.00
2022-10-25T02:23:26.110Z,91.10
2022-10-25T02:25:55.426Z,91.00
2022-10-25T02:28:26.711Z,90.90
2022-10-25T02:30:56.600Z,90.70
2022-10-25T02:33:26.373Z,90.70
2022-10-25T02:36:10.642Z,91.00
2022-10-25T02:38:39.312Z,90.90
2022-10-25T02:41:10.160Z,90.90
2022-10-25T02:43:38.454Z,90.70
2022-10-25T02:46:10.441Z,91.10
2022-10-25T02:48:40.572Z,91.00
2022-10-25T02:51:10.108Z,91.60
2022-10-25T02:53:53.387Z,91.60
2022-10-25T02:56:24.777Z,92.10
2022-10-25T02:58:57.889Z,92.40
2022-10-25T03:01:27.050Z,92.20
2022-10-25T03:03:56.598Z,92.00
2022-10-25T03:06:24.769Z,91.50
2022-10-25T03:08:52.882Z,91.80
2022-10-25T03:11:20.967Z,91.70
2022-10-25T03:13:49.057Z,91.60
2022-10-25T03:16:17.317Z,91.60
2022-10-25T03:18:45.437Z,91.70
2022-10-25T03:21:14.886Z,91.20
2022-10-25T03:23:43.002Z,91.20
2022-10-25T03:26:11.249Z,91.20
2022-10-25T03:28:40.405Z,91.30
2022-10-25T03:31:12.715Z,90.80
2022-10-25T03:33:41.054Z,91.20
2022-10-25T03:36:09.455Z,91.80
2022-10-25T03:38:42.202Z,92.50
2022-10-25T03:41:10.290Z,93.00
2022-10-25T03:43:38.390Z,92.90
2022-10-25T03:46:06.866Z,92.90
2022-10-25T03:48:35.008Z,93.20
2022-10-25T03:51:03.168Z,93.10
2022-10-25T03:53:31.263Z,93.10
2022-10-25T03:56:00.763Z,93.20
2022-10-25T03:58:28.798Z,93.70
2022-10-25T04:00:56.974Z,94.30
2022-10-25T04:03:27.545Z,94.80
2022-10-25T04:05:56.586Z,95.10
2022-10-25T04:08:27.879Z,95.20
2022-10-25T04:10:55.900Z,95.90
2022-10-25T04:13:25.451Z,96.30
2022-10-25T04:15:53.496Z,97.00
2022-10-25T04:18:21.532Z,97.70
2022-10-25T04:20:51.835Z,98.30
2022-10-25T04:23:22.129Z,98.80
2022-10-25T04:25:50.637Z,98.70
2022-10-25T04:28:18.701Z,98.70
2022-10-25T04:30:50.452Z,99.10
2022-10-25T04:33:18.769Z,99.60
2022-10-25T04:35:55.929Z,99.90
2022-10-25T04:38:24.598Z,99.90
2022-10-25T04:40:56.443Z,99.90
2022-10-25T04:43:25.705Z,99.90
2022-10-25T04:45:55.578Z,99.90
2022-10-25T04:48:23.677Z,99.90
2022-10-25T04:50:51.760Z,99.90
2022-10-25T04:53:19.825Z,99.90
2022-10-25T04:55:57.107Z,99.90
2022-10-25T04:58:30.347Z,99.90
2022-10-25T05:01:03.361Z,99.90
2022-10-25T05:03:34.850Z,99.90
2022-10-25T05:06:09.866Z,99.90
2022-10-25T05:08:40.700Z,99.90
2022-10-25T05:11:11.390Z,99.90
2022-10-25T05:13:41.382Z,99.90
2022-10-25T05:16:13.365Z,99.90
2022-10-25T05:18:42.829Z,99.90
2022-10-25T05:21:11.288Z,99.90
2022-10-25T05:23:39.614Z,99.90
2022-10-25T05:26:09.223Z,99.90
2022-10-25T05:28:41.407Z,99.90
2022-10-25T05:31:14.306Z,99.90
2022-10-25T05:33:44.966Z,99.90
2022-10-25T05:36:14.236Z,99.90
2022-10-25T05:38:43.211Z,99.90
2022-10-25T05:41:12.860Z,99.90
2022-10-25T05:43:41.274Z,99.90
2022-10-25T05:46:15.208Z,99.90
2022-10-25T05:48:48.714Z,99.90
2022-10-25T05:51:33.890Z,99.90
2022-10-25T05:54:05.272Z,99.00
2022-10-25T05:56:34.400Z,97.60
2022-10-25T05:59:04.309Z,97.20
2022-10-25T06:01:33.794Z,97.40
2022-10-25T06:04:02.109Z,97.40
2022-10-25T06:06:30.180Z,96.80
2022-10-25T06:08:58.816Z,96.30
2022-10-25T06:11:28.237Z,96.10
2022-10-25T06:13:56.635Z,96.80
2022-10-25T06:16:25.494Z,96.70
2022-10-25T06:18:55.546Z,96.40
2022-10-25T06:21:25.042Z,96.00
2022-10-25T06:23:53.746Z,94.90
2022-10-25T06:26:24.096Z,94.40
2022-10-25T06:28:54.059Z,94.30
2022-10-25T06:31:22.558Z,94.50
2022-10-25T06:33:50.620Z,93.50
2022-10-25T06:36:21.531Z,92.80
2022-10-25T06:38:50.367Z,92.30
2022-10-25T06:41:20.563Z,92.00
2022-10-25T06:43:48.986Z,92.00
2022-10-25T06:46:21.722Z,91.40
2022-10-25T06:48:49.917Z,91.30
2022-10-25T06:51:20.330Z,92.00
2022-10-25T06:53:48.530Z,92.00
2022-10-25T06:56:16.880Z,91.60
2022-10-25T06:58:44.949Z,91.90
2022-10-25T07:01:14.879Z,91.60
2022-10-25T07:03:43.774Z,91.00
2022-10-25T07:06:13.580Z,90.70
2022-10-25T07:08:44.521Z,91.00
2022-10-25T07:11:15.980Z,90.40
2022-10-25T07:13:44.459Z,90.70
2022-10-25T07:16:15.030Z,89.70
2022-10-25T07:18:43.907Z,89.60
2022-10-25T07:21:16.199Z,88.30
2022-10-25T07:23:45.846Z,88.00
2022-10-25T07:26:16.187Z,86.60
2022-10-25T07:28:45.438Z,86.20
2022-10-25T07:31:17.177Z,86.60
2022-10-25T07:33:45.422Z,86.20
2022-10-25T07:36:15.904Z,84.70
2022-10-25T07:38:45.553Z,82.90
2022-10-25T07:41:13.953Z,82.00
2022-10-25T07:43:42.151Z,80.80
2022-10-25T07:46:10.784Z,81.00
2022-10-25T07:48:38.935Z,81.60
2022-10-25T07:51:08.586Z,82.20
2022-10-25T07:53:36.631Z,83.20
2022-10-25T07:56:09.078Z,82.60
2022-10-25T07:58:37.222Z,82.00
2022-10-25T08:01:07.241Z,82.40
2022-10-25T08:03:35.841Z,82.50
2022-10-25T08:06:06.916Z,82.60
2022-10-25T08:08:35.420Z,81.90
2022-10-25T08:11:08.135Z,82.40
2022-10-25T08:13:38.725Z,82.20
2022-10-25T08:16:09.452Z,81.90
2022-10-25T08:18:37.601Z,81.50
2022-10-25T08:21:08.014Z,81.00
2022-10-25T08:23:36.241Z,81.90
2022-10-25T08:26:04.762Z,81.00
2022-10-25T08:28:33.258Z,80.60
2022-10-25T08:31:04.431Z,79.70
2022-10-25T08:33:34.411Z,79.20
2022-10-25T08:36:03.374Z,79.40
2022-10-25T08:38:31.559Z,78.10
2022-10-25T08:41:10.067Z,76.90
2022-10-25T08:44:14.060Z,77.00
2022-10-25T08:46:50.855Z,75.90
2022-10-25T08:49:24.169Z,76.10
2022-10-25T08:51:55.230Z,74.90
2022-10-25T08:54:28.012Z,74.90
2022-10-25T08:57:21.458Z,75.10
2022-10-25T08:59:54.011Z,74.60
2022-10-25T09:02:33.458Z,75.40
2022-10-25T09:05:04.801Z,75.30
2022-10-25T09:08:01.843Z,73.90
2022-10-25T09:10:49.718Z,73.90
2022-10-25T09:13:31.577Z,74.50
2022-10-25T09:16:11.954Z,74.40
2022-10-25T09:18:48.095Z,74.00
2022-10-25T09:21:22.586Z,74.10
2022-10-25T09:24:00.189Z,73.70
2022-10-25T09:26:43.793Z,73.50
2022-10-25T09:29:18.697Z,72.80
2022-10-25T09:31:52.881Z,72.60
2022-10-25T09:34:24.541Z,72.70
2022-10-25T09:36:57.695Z,71.90
2022-10-25T09:39:34.995Z,71.80
2022-10-25T09:42:07.494Z,70.00
2022-10-25T09:44:42.912Z,70.40
2022-10-25T09:47:19.101Z,69.80
2022-10-25T09:49:57.921Z,70.00
2022-10-25T09:52:34.617Z,69.80
2022-10-25T09:55:35.841Z,70.20
2022-10-25T09:58:04.630Z,70.40
2022-10-25T10:00:41.721Z,70.70
2022-10-25T10:03:12.360Z,70.10
2022-10-25T10:05:46.300Z,69.90
2022-10-25T10:08:16.850Z,69.60
2022-10-25T10:10:46.408Z,70.60
2022-10-25T10:13:19.704Z,69.70
2022-10-25T10:15:55.229Z,69.80
2022-10-25T10:18:25.944Z,69.70
2022-10-25T10:21:13.699Z,69.70
2022-10-25T10:23:51.261Z,69.30
2022-10-25T10:26:22.513Z,69.70
2022-10-25T10:28:53.314Z,70.50
2022-10-25T10:31:24.699Z,71.40
2022-10-25T10:33:53.613Z,70.30
2022-10-25T10:36:28.480Z,70.80
2022-10-25T10:39:21.556Z,70.20
2022-10-25T10:42:04.246Z,70.90
2022-10-25T10:44:35.398Z,69.70
2022-10-25T10:47:11.974Z,68.50
2022-10-25T10:49:42.909Z,67.30
2022-10-25T10:52:29.436Z,65.70
2022-10-25T10:54:59.552Z,63.70
2022-10-25T10:57:33.370Z,63.30
2022-10-25T11:00:02.433Z,64.30
2022-10-25T11:02:41.101Z,63.40
2022-10-25T11:05:25.292Z,64.40
2022-10-25T11:08:00.527Z,63.20
2022-10-25T11:10:34.194Z,62.30
2022-10-25T11:13:11.366Z,61.80
2022-10-25T11:15:53.171Z,60.80
2022-10-25T11:18:32.187Z,61.00
2022-10-25T11:21:09.122Z,60.30
2022-10-25T11:23:48.655Z,60.70
2022-10-25T11:26:29.380Z,61.90
2022-10-25T11:29:07.340Z,62.80
2022-10-25T11:31:50.704Z,61.60
2022-10-25T11:34:28.525Z,60.30
2022-10-25T11:37:09.889Z,60.20
2022-10-25T11:39:54.398Z,59.90
2022-10-25T11:42:48.331Z,60.40
2022-10-25T11:45:26.617Z,59.30
2022-10-25T11:48:07.706Z,59.10
2022-10-25T11:50:44.280Z,59.60
2022-10-25T11:53:34.205Z,58.70
2022-10-25T11:56:10.678Z,58.20
2022-10-25T11:58:46.794Z,56.60
2022-10-25T12:01:29.965Z,57.30
2022-10-25T12:04:18.615Z,57.70
2022-10-25T12:06:53.290Z,56.80
2022-10-25T12:09:32.125Z,57.00
2022-10-25T12:12:06.638Z,56.70
2022-10-25T12:14:39.185Z,55.90
2022-10-25T12:17:22.545Z,56.90
2022-10-25T12:19:52.816Z,55.60
2022-10-25T12:22:25.321Z,55.00
2022-10-25T12:24:59.921Z,55.50
2022-10-25T12:27:33.346Z,55.10
2022-10-25T12:30:06.462Z,55.10
2022-10-25T12:32:39.499Z,55.30
2022-10-25T12:35:20.107Z,56.60
2022-10-25T12:37:58.080Z,56.10
2022-10-25T12:40:29.265Z,57.20
2022-10-25T12:43:06.949Z,58.00
2022-10-25T12:46:13.078Z,57.70
2022-10-25T12:49:04.436Z,58.90
2022-10-25T12:51:46.153Z,57.40
2022-10-25T12:54:29.538Z,58.50
2022-10-25T12:57:11.372Z,58.70
2022-10-25T12:59:54.898Z,58.70
2022-10-25T13:02:43.739Z,57.30
2022-10-25T13:05:43.471Z,57.30
2022-10-25T13:08:13.803Z,57.60
2022-10-25T13:10:47.378Z,58.00
2022-10-25T13:13:21.047Z,58.00
2022-10-25T13:15:52.215Z,57.50
2022-10-25T13:18:30.192Z,57.00
2022-10-25T13:20:58.604Z,57.20
2022-10-25T13:23:59.723Z,56.80
2022-10-25T13:26:32.075Z,56.50
2022-10-25T13:29:03.389Z,57.90
2022-10-25T13:31:58.580Z,58.30
2022-10-25T13:34:36.295Z,58.70
2022-10-25T13:37:07.521Z,58.90
2022-10-25T13:39:43.960Z,59.20
2022-10-25T13:42:28.437Z,58.90
2022-10-25T13:45:00.022Z,58.10
2022-10-25T13:47:38.542Z,58.20
2022-10-25T13:53:02.599Z,59.10
2022-10-25T13:55:35.905Z,59.30
2022-10-25T13:58:42.149Z,59.10
2022-10-25T14:01:58.013Z,60.30
2022-10-25T14:04:39.377Z,60.70
2022-10-25T14:07:45.090Z,59.90
2022-10-25T14:10:27.564Z,59.80
2022-10-25T14:13:07.124Z,60.20
2022-10-25T14:15:46.718Z,60.30
2022-10-25T14:18:20.531Z,61.50
2022-10-25T14:20:53.723Z,61.70
2022-10-25T14:23:24.773Z,61.50
2022-10-25T14:25:57.039Z,60.80
2022-10-25T14:28:28.918Z,60.50
2022-10-25T14:30:58.904Z,60.90
2022-10-25T14:33:29.925Z,60.80
2022-10-25T14:36:10.038Z,60.20
2022-10-25T14:38:50.832Z,60.80
2022-10-25T14:41:24.287Z,61.50
2022-10-25T14:43:52.641Z,61.40
2022-10-25T14:46:22.356Z,61.40
2022-10-25T14:48:54.810Z,61.40
2022-10-25T14:51:27.942Z,61.50
2022-10-25T14:53:59.857Z,62.10
2022-10-25T14:56:31.464Z,62.50
2022-10-25T14:59:00.979Z,63.10
2022-10-25T15:01:29.955Z,62.70
2022-10-25T15:04:01.595Z,62.40
2022-10-25T15:06:33.381Z,63.00
2022-10-25T15:09:37.375Z,63.50
2022-10-25T15:12:17.833Z,63.40
2022-10-25T15:14:49.807Z,63.40
2022-10-25T15:17:26.625Z,64.00
2022-10-25T15:20:27.207Z,64.60
2022-10-25T15:23:04.883Z,64.10
2022-10-25T15:25:38.469Z,65.40
2022-10-25T15:28:14.266Z,65.80
2022-10-25T15:30:46.165Z,65.20
2022-10-25T15:33:18.918Z,65.90
2022-10-25T15:35:50.124Z,66.30
2022-10-25T15:38:20.861Z,66.70
2022-10-25T15:40:50.642Z,67.00
2022-10-25T15:43:18.747Z,67.30
2022-10-25T15:45:47.108Z,67.70
2022-10-25T15:48:17.524Z,68.00
2022-10-25T15:50:48.969Z,68.60
2022-10-25T15:53:17.203Z,68.80
2022-10-25T15:55:46.964Z,69.40
2022-10-25T15:58:15.157Z,69.90
2022-10-25T16:00:44.593Z,70.10
2022-10-25T16:03:21.695Z,70.60
2022-10-25T16:05:52.526Z,70.80
2022-10-25T16:08:20.943Z,71.10
2022-10-25T16:10:50.578Z,71.80
2022-10-25T16:13:26.807Z,72.20
2022-10-25T16:15:55.372Z,72.00
2022-10-25T16:20:56.455Z,72.80
2022-10-25T16:23:25.178Z,73.10
2022-10-25T16:25:58.877Z,73.40
2022-10-25T16:28:28.059Z,73.50
2022-10-25T16:30:56.254Z,73.60
2022-10-25T16:33:24.550Z,74.60
2022-10-25T16:35:52.908Z,74.10
2022-10-25T16:38:21.075Z,74.60
2022-10-25T16:40:49.704Z,75.00
2022-10-25T16:43:19.243Z,75.40
2022-10-25T16:45:48.411Z,75.70
2022-10-25T16:48:18.803Z,76.40
2022-10-25T16:50:47.071Z,76.50
2022-10-25T16:53:17.691Z,76.40
2022-10-25T16:55:45.973Z,77.30
2022-10-25T16:58:14.221Z,78.10
2022-10-25T17:00:44.384Z,78.40
2022-10-25T17:03:12.655Z,78.00
2022-10-25T17:05:40.846Z,78.40
2022-10-25T17:08:09.001Z,79.50
2022-10-25T17:10:42.465Z,79.40
2022-10-25T17:13:15.916Z,79.90
2022-10-25T17:15:45.521Z,80.20
2022-10-25T17:18:18.589Z,80.50
2022-10-25T17:20:47.020Z,80.40
2022-10-25T17:23:15.391Z,80.00
2022-10-25T17:25:43.829Z,80.30
2022-10-25T17:28:12.290Z,80.70
2022-10-25T17:31:10.076Z,81.50
2022-10-25T17:33:38.285Z,82.60
2022-10-25T17:36:08.475Z,84.00
2022-10-25T17:38:36.970Z,84.30
2022-10-25T17:41:05.402Z,85.20
2022-10-25T17:43:35.348Z,85.80
2022-10-25T17:46:04.750Z,86.70
2022-10-25T17:48:35.015Z,87.20
2022-10-25T17:51:07.434Z,87.50
2022-10-25T17:53:35.814Z,88.80
2022-10-25T17:56:11.821Z,89.00
2022-10-25T17:58:41.930Z,89.40
2022-10-25T18:01:10.472Z,90.00
2022-10-25T18:03:40.397Z,90.80
2022-10-25T18:06:10.906Z,91.90
2022-10-25T18:08:39.680Z,93.00
2022-10-25T18:11:11.360Z,93.90
2022-10-25T18:13:40.801Z,94.50
2022-10-25T18:16:10.179Z,94.90
2022-10-25T18:18:40.175Z,95.20
2022-10-25T18:21:10.145Z,96.10
2022-10-25T18:23:38.556Z,96.80
2022-10-25T18:26:08.241Z,97.50
2022-10-25T18:28:38.627Z,97.60
2022-10-25T18:31:10.289Z,99.10
2022-10-25T18:33:41.182Z,99.90
2022-10-25T18:36:12.306Z,99.70
2022-10-25T18:38:40.424Z,99.90
2022-10-25T18:41:10.056Z,99.90
2022-10-25T18:43:38.213Z,99.70
2022-10-25T18:46:06.618Z,99.90
2022-10-25T18:48:34.871Z,99.90
2022-10-25T18:51:08.704Z,99.90
2022-10-25T18:53:40.791Z,99.90
2022-10-25T18:56:11.046Z,99.90
2022-10-25T18:58:39.484Z,99.90
2022-10-25T19:01:08.936Z,99.90
2022-10-25T19:03:39.884Z,99.90
2022-10-25T19:06:09.842Z,99.90
2022-10-25T19:08:38.508Z,99.90
2022-10-25T19:11:07.678Z,99.90
2022-10-25T19:13:38.759Z,99.90
2022-10-25T19:16:07.878Z,99.90
2022-10-25T19:18:37.991Z,99.90
2022-10-25T19:21:07.794Z,99.90
2022-10-25T19:23:39.126Z,99.90
2022-10-25T19:26:10.056Z,99.90
2022-10-25T19:28:38.407Z,99.90
2022-10-25T19:31:07.426Z,99.90
2022-10-25T19:33:36.134Z,99.90
2022-10-25T19:36:05.184Z,99.90
2022-10-25T19:38:33.312Z,99.90
2022-10-25T19:41:03.991Z,99.90
2022-10-25T19:43:32.122Z,99.90
2022-10-25T19:46:01.110Z,99.90
2022-10-25T19:48:32.507Z,99.90
2022-10-25T19:51:06.416Z,99.90
2022-10-25T19:53:37.086Z,99.90
2022-10-25T19:56:08.732Z,99.90
2022-10-25T19:58:37.616Z,99.90
2022-10-25T20:01:08.550Z,99.90
2022-10-25T20:03:37.441Z,99.90
2022-10-25T20:06:08.150Z,99.90
2022-10-25T20:08:37.509Z,99.90
2022-10-25T20:11:07.955Z,99.90
2022-10-25T20:13:36.431Z,99.90
2022-10-25T20:16:05.287Z,99.90
2022-10-25T20:18:37.900Z,99.90
2022-10-25T20:21:09.356Z,99.90
2022-10-25T20:23:41.527Z,99.90
2022-10-25T20:26:16.311Z,99.90
2022-10-25T20:28:45.054Z,99.90
2022-10-25T20:31:13.772Z,99.90
2022-10-25T20:33:42.140Z,99.90
2022-10-25T20:36:13.096Z,99.90
2022-10-25T20:38:41.988Z,99.90
2022-10-25T20:41:12.230Z,99.90
2022-10-25T20:43:43.061Z,99.90
2022-10-25T20:46:20.334Z,99.90
2022-10-25T20:48:48.919Z,99.90
2022-10-25T20:51:19.560Z,99.90
2022-10-25T20:53:48.795Z,99.90
2022-10-25T20:56:18.220Z,99.90
2022-10-25T20:58:47.951Z,99.90
2022-10-25T21:01:16.566Z,99.90
2022-10-25T21:03:44.878Z,99.90
2022-10-25T21:06:14.434Z,99.90
2022-10-25T21:08:44.889Z,99.90
2022-10-25T21:11:14.242Z,99.90
2022-10-25T21:13:42.756Z,99.90
2022-10-25T21:16:16.243Z,99.90
2022-10-25T21:18:45.456Z,99.90
2022-10-25T21:21:18.855Z,99.90
2022-10-25T21:23:47.499Z,99.90
2022-10-25T21:26:15.823Z,99.90
2022-10-25T21:28:44.991Z,99.90
2022-10-25T21:31:16.760Z,99.90
2022-10-25T21:33:50.108Z,99.90
2022-10-25T21:36:21.127Z,99.90
2022-10-25T21:38:49.573Z,99.90
2022-10-25T21:41:20.476Z,99.90
2022-10-25T21:43:49.909Z,99.90
2022-10-25T21:46:27.042Z,99.90
2022-10-25T21:49:02.563Z,99.90
2022-10-25T21:51:31.051Z,99.90
2022-10-25T21:54:01.170Z,99.90
2022-10-25T21:56:32.870Z,99.90
2022-10-25T21:59:01.362Z,99.90
2022-10-25T22:01:32.132Z,99.90
2022-10-25T22:04:00.427Z,99.90
2022-10-25T22:06:29.037Z,99.90
2022-10-25T22:08:57.607Z,99.90
2022-10-25T22:11:27.491Z,99.90
2022-10-25T22:13:57.891Z,99.90
2022-10-25T22:16:26.656Z,99.90
2022-10-25T22:18:58.833Z,99.90
2022-10-25T22:21:28.307Z,99.90
2022-10-25T22:23:56.405Z,99.90
2022-10-25T22:26:24.649Z,99.90
2022-10-25T22:28:54.037Z,99.90
2022-10-25T22:31:23.061Z,99.90
2022-10-25T22:33:56.201Z,99.90
2022-10-25T22:36:27.538Z,99.90
2022-10-25T22:38:55.726Z,99.90
2022-10-25T22:41:25.246Z,99.90
2022-10-25T22:43:53.760Z,99.90
2022-10-25T22:46:25.373Z,99.90
2022-10-25T22:48:56.087Z,99.90
2022-10-25T22:51:25.827Z,99.90
2022-10-25T22:53:54.056Z,99.90
2022-10-25T22:56:23.808Z,99.90
2022-10-25T22:58:53.404Z,99.90
2022-10-25T23:01:23.559Z,99.90
2022-10-25T23:03:54.437Z,99.90
2022-10-25T23:06:26.775Z,99.90
2022-10-25T23:08:55.842Z,99.90
2022-10-25T23:11:32.734Z,99.90
2022-10-25T23:14:06.707Z,99.90
2022-10-25T23:16:41.038Z,99.90
2022-10-25T23:19:16.581Z,99.90
2022-10-25T23:21:49.549Z,99.90
2022-10-25T23:24:23.121Z,99.90
2022-10-25T23:26:59.258Z,99.90
2022-10-25T23:29:30.946Z,99.90
2022-10-25T23:32:05.381Z,99.90
2022-10-25T23:34:37.234Z,99.90
2022-10-25T23:37:07.316Z,99.90
2022-10-25T23:39:35.329Z,99.90
2022-10-25T23:42:03.407Z,99.90
2022-10-25T23:44:31.896Z,99.90
2022-10-25T23:46:59.886Z,99.90
2022-10-25T23:49:27.894Z,99.90
2022-10-25T23:51:55.960Z,99.90
2022-10-25T23:54:25.559Z,99.90
2022-10-25T23:56:53.614Z,99.90
2022-10-25T23:59:21.718Z,99.90
